^^
Grace C. Lehan Memorial Weather Station Historical Data
 
Daily Summary for April 19, 2019 Units:  English    Metric   Both
Daily Weekly Monthly Yearly Custom
  Current: High: Low: Average:
Temperature: 64.5 °F 75.9 °F 55.6 °F 65.8 °F
Dew Point: 62.7 °F 65.0 °F 53.9 °F 60.4 °F
Humidity: 94% 94% 66% 83%
Wind Speed: 2.0mph 14.0mph 0.0mph 3.7mph
Wind Gust: 13.0mph 20.0mph - -
WindSouth - - SSW
Pressure: 29.74 in 29.85 in 29.72 in -
Precipitation: 0.01 in      
Historical Graphs
 
 
Tabular Data for April 19, 2019
Time Temperature Dew Point Pressure Wind Wind Speed Wind Gust Humidity Rainfall Rate (Hourly) solar
00:04 55.6 °F 53.9 °F 29.85 in SSW 3.0 mph 3.0 mph 94% 0.00 in 0.00 W/m2
00:09 56.1 °F 54.4 °F 29.84 in SSW 2.0 mph 4.0 mph 94% 0.00 in 0.00 W/m2
00:14 56.5 °F 54.5 °F 29.84 in SSW 3.0 mph 5.0 mph 93% 0.00 in 0.00 W/m2
00:19 57.0 °F 55.0 °F 29.84 in SSW 4.0 mph 7.0 mph 93% 0.00 in 0.00 W/m2
00:24 57.2 °F 55.2 °F 29.84 in SSW 3.0 mph 7.0 mph 93% 0.00 in 0.00 W/m2
00:29 57.4 °F 55.1 °F 29.84 in SSW 2.0 mph 7.0 mph 92% 0.00 in 0.00 W/m2
00:34 57.5 °F 55.2 °F 29.85 in SSW 2.0 mph 3.0 mph 92% 0.00 in 0.00 W/m2
00:39 57.6 °F 55.3 °F 29.85 in SSW 1.0 mph 4.0 mph 92% 0.00 in 0.00 W/m2
00:44 57.7 °F 55.4 °F 29.85 in Calm   4.0 mph 92% 0.00 in 0.00 W/m2
00:49 57.8 °F 55.5 °F 29.85 in SSW 2.0 mph 4.0 mph 92% 0.00 in 0.00 W/m2
00:54 57.8 °F 55.5 °F 29.85 in Calm   4.0 mph 92% 0.00 in 0.00 W/m2
00:59 57.9 °F 55.6 °F 29.85 in Calm   4.0 mph 92% 0.00 in 0.00 W/m2
01:04 58.0 °F 55.7 °F 29.85 in SSW 2.0 mph 4.0 mph 92% 0.00 in 0.00 W/m2
01:09 58.0 °F 55.7 °F 29.84 in SSW 3.0 mph 4.0 mph 92% 0.00 in 0.00 W/m2
01:14 58.0 °F 55.7 °F 29.84 in SSW 2.0 mph 5.0 mph 92% 0.00 in 0.00 W/m2
01:19 58.0 °F 55.7 °F 29.84 in SSW 4.0 mph 5.0 mph 92% 0.00 in 0.00 W/m2
01:24 58.1 °F 55.8 °F 29.83 in SSW 2.0 mph 5.0 mph 92% 0.00 in 0.00 W/m2
01:29 58.1 °F 55.8 °F 29.83 in SSW 3.0 mph 5.0 mph 92% 0.00 in 0.00 W/m2
01:34 58.1 °F 55.8 °F 29.83 in SSW 3.0 mph 6.0 mph 92% 0.00 in 0.00 W/m2
01:39 58.1 °F 55.8 °F 29.83 in SSW 3.0 mph 6.0 mph 92% 0.00 in 0.00 W/m2
01:44 58.1 °F 55.8 °F 29.83 in SSW 3.0 mph 6.0 mph 92% 0.00 in 0.00 W/m2
01:49 58.0 °F 55.7 °F 29.82 in SSW 4.0 mph 6.0 mph 92% 0.00 in 0.00 W/m2
01:54 58.0 °F 55.7 °F 29.82 in SSW 3.0 mph 6.0 mph 92% 0.00 in 0.00 W/m2
01:59 57.9 °F 55.6 °F 29.82 in SSW 4.0 mph 6.0 mph 92% 0.00 in 0.00 W/m2
02:04 57.8 °F 55.5 °F 29.82 in SSW 2.0 mph 6.0 mph 92% 0.00 in 0.00 W/m2
02:09 57.8 °F 55.5 °F 29.82 in SSW 3.0 mph 6.0 mph 92% 0.00 in 0.00 W/m2
02:14 57.8 °F 55.5 °F 29.82 in SSW 2.0 mph 6.0 mph 92% 0.00 in 0.00 W/m2
02:19 57.8 °F 55.5 °F 29.82 in SSW 6.0 mph 6.0 mph 92% 0.00 in 0.00 W/m2
02:24 57.9 °F 55.6 °F 29.82 in SSW 2.0 mph 6.0 mph 92% 0.00 in 0.00 W/m2
02:29 58.0 °F 55.7 °F 29.82 in SSW 3.0 mph 6.0 mph 92% 0.00 in 0.00 W/m2
02:34 58.1 °F 55.8 °F 29.82 in SSW 3.0 mph 5.0 mph 92% 0.00 in 0.00 W/m2
02:39 58.1 °F 55.8 °F 29.81 in SSW 2.0 mph 5.0 mph 92% 0.00 in 0.00 W/m2
02:44 58.1 °F 55.8 °F 29.81 in SSW 2.0 mph 5.0 mph 92% 0.00 in 0.00 W/m2
02:49 58.2 °F 55.9 °F 29.81 in SSW 3.0 mph 5.0 mph 92% 0.00 in 0.00 W/m2
02:54 58.2 °F 55.9 °F 29.81 in SSW 3.0 mph 5.0 mph 92% 0.00 in 0.00 W/m2
02:59 58.2 °F 55.9 °F 29.80 in SSW 3.0 mph 5.0 mph 92% 0.00 in 0.00 W/m2
03:04 58.4 °F 56.1 °F 29.80 in SSW 2.0 mph 4.0 mph 92% 0.00 in 0.00 W/m2
03:09 58.4 °F 56.1 °F 29.80 in SSW 4.0 mph 11.0 mph 92% 0.00 in 0.00 W/m2
03:14 58.6 °F 56.3 °F 29.80 in SSW 3.0 mph 11.0 mph 92% 0.00 in 0.00 W/m2
03:19 58.7 °F 56.1 °F 29.80 in SSW 3.0 mph 11.0 mph 91% 0.00 in 0.00 W/m2
03:24 58.8 °F 56.2 °F 29.80 in SSW 4.0 mph 11.0 mph 91% 0.00 in 0.00 W/m2
03:29 58.7 °F 56.1 °F 29.80 in SSW 4.0 mph 11.0 mph 91% 0.00 in 0.00 W/m2
03:34 58.7 °F 56.1 °F 29.80 in SSW 3.0 mph 6.0 mph 91% 0.00 in 0.00 W/m2
03:39 58.7 °F 56.1 °F 29.80 in South 3.0 mph 6.0 mph 91% 0.00 in 0.00 W/m2
03:44 58.6 °F 56.0 °F 29.80 in South 2.0 mph 6.0 mph 91% 0.00 in 0.00 W/m2
03:49 58.6 °F 56.0 °F 29.80 in South 2.0 mph 6.0 mph 91% 0.00 in 0.00 W/m2
03:54 58.5 °F 55.9 °F 29.80 in South 2.0 mph 6.0 mph 91% 0.00 in 0.00 W/m2
03:59 58.5 °F 55.9 °F 29.80 in South 4.0 mph 6.0 mph 91% 0.00 in 0.00 W/m2
04:04 58.5 °F 55.9 °F 29.81 in South 3.0 mph 5.0 mph 91% 0.00 in 0.00 W/m2
04:09 58.5 °F 55.9 °F 29.81 in South 2.0 mph 5.0 mph 91% 0.00 in 0.00 W/m2
04:14 58.4 °F 55.8 °F 29.81 in South 4.0 mph 5.0 mph 91% 0.00 in 0.00 W/m2
04:19 58.5 °F 55.9 °F 29.81 in South 3.0 mph 5.0 mph 91% 0.00 in 0.00 W/m2
04:24 58.6 °F 56.0 °F 29.80 in South 2.0 mph 7.0 mph 91% 0.00 in 0.00 W/m2
04:29 58.8 °F 56.2 °F 29.80 in South 1.0 mph 7.0 mph 91% 0.00 in 0.00 W/m2
04:34 58.8 °F 56.2 °F 29.80 in South 3.0 mph 4.0 mph 91% 0.00 in 0.00 W/m2
04:39 58.9 °F 56.3 °F 29.80 in South 3.0 mph 4.0 mph 91% 0.00 in 0.00 W/m2
04:44 59.0 °F 56.4 °F 29.80 in South 2.0 mph 6.0 mph 91% 0.00 in 0.00 W/m2
04:49 59.1 °F 56.5 °F 29.80 in South 2.0 mph 6.0 mph 91% 0.00 in 0.00 W/m2
04:54 59.1 °F 56.2 °F 29.80 in South 2.0 mph 6.0 mph 90% 0.00 in 0.00 W/m2
04:59 59.2 °F 56.6 °F 29.80 in South 5.0 mph 6.0 mph 91% 0.00 in 0.00 W/m2
05:04 59.2 °F 56.6 °F 29.80 in South 3.0 mph 4.0 mph 91% 0.00 in 0.00 W/m2
05:09 59.2 °F 56.6 °F 29.80 in South 2.0 mph 4.0 mph 91% 0.00 in 0.00 W/m2
05:14 59.2 °F 56.6 °F 29.80 in South 1.0 mph 4.0 mph 91% 0.00 in 0.00 W/m2
05:19 59.2 °F 56.6 °F 29.80 in SSW 4.0 mph 6.0 mph 91% 0.00 in 0.00 W/m2
05:24 59.2 °F 56.6 °F 29.80 in SSW 3.0 mph 8.0 mph 91% 0.00 in 0.00 W/m2
05:29 59.3 °F 56.7 °F 29.80 in SSW 4.0 mph 8.0 mph 91% 0.00 in 0.00 W/m2
05:34 59.3 °F 56.7 °F 29.80 in SSW 3.0 mph 4.0 mph 91% 0.00 in 0.00 W/m2
05:39 59.3 °F 56.7 °F 29.80 in SSW 4.0 mph 6.0 mph 91% 0.00 in 0.00 W/m2
05:44 59.3 °F 56.7 °F 29.80 in SSW 3.0 mph 6.0 mph 91% 0.00 in 0.00 W/m2
05:49 59.3 °F 56.7 °F 29.80 in SSW 3.0 mph 6.0 mph 91% 0.00 in 0.00 W/m2
05:54 59.4 °F 56.8 °F 29.80 in SSW 2.0 mph 7.0 mph 91% 0.00 in 0.00 W/m2
05:59 59.4 °F 56.8 °F 29.80 in SSW 3.0 mph 7.0 mph 91% 0.00 in 0.00 W/m2
06:04 59.4 °F 56.8 °F 29.80 in SSW 5.0 mph 5.0 mph 91% 0.00 in 0.00 W/m2
06:09 59.6 °F 57.3 °F 29.80 in SSW 3.0 mph 7.0 mph 92% 0.00 in 0.00 W/m2
06:14 59.6 °F 57.3 °F 29.80 in SSW 5.0 mph 7.0 mph 92% 0.00 in 0.00 W/m2
06:19 59.7 °F 57.4 °F 29.80 in SSW 4.0 mph 7.0 mph 92% 0.00 in 7.00 W/m2
06:24 59.8 °F 57.5 °F 29.80 in SSW 3.0 mph 7.0 mph 92% 0.00 in 11.00 W/m2
06:29 59.8 °F 57.5 °F 29.80 in SSW 3.0 mph 7.0 mph 92% 0.00 in 12.00 W/m2
06:34 59.9 °F 57.6 °F 29.80 in SSW 2.0 mph 7.0 mph 92% 0.00 in 14.00 W/m2
06:39 59.9 °F 57.6 °F 29.80 in SSW 4.0 mph 7.0 mph 92% 0.00 in 19.00 W/m2
06:44 59.9 °F 57.3 °F 29.81 in SSW 3.0 mph 7.0 mph 91% 0.00 in 26.00 W/m2
06:49 59.9 °F 57.3 °F 29.81 in SSW 6.0 mph 7.0 mph 91% 0.00 in 33.00 W/m2
06:54 59.9 °F 57.3 °F 29.81 in South 4.0 mph 7.0 mph 91% 0.00 in 30.00 W/m2
06:59 60.0 °F 57.4 °F 29.81 in South 3.0 mph 7.0 mph 91% 0.00 in 30.00 W/m2
07:04 60.0 °F 57.4 °F 29.81 in South 4.0 mph 7.0 mph 91% 0.00 in 54.00 W/m2
07:09 60.0 °F 57.4 °F 29.81 in SSW 4.0 mph 8.0 mph 91% 0.00 in 49.00 W/m2
07:14 60.1 °F 57.5 °F 29.81 in SSW 3.0 mph 8.0 mph 91% 0.00 in 62.00 W/m2
07:19 60.3 °F 57.7 °F 29.81 in SSW 2.0 mph 8.0 mph 91% 0.00 in 56.00 W/m2
07:24 60.4 °F 57.8 °F 29.81 in SSW 4.0 mph 8.0 mph 91% 0.00 in 155.00 W/m2
07:29 60.5 °F 57.9 °F 29.81 in SSW 3.0 mph 8.0 mph 91% 0.00 in 97.00 W/m2
07:34 60.7 °F 58.1 °F 29.81 in SSW 3.0 mph 5.0 mph 91% 0.00 in 137.00 W/m2
07:39 60.9 °F 58.3 °F 29.81 in South 3.0 mph 6.0 mph 91% 0.00 in 176.00 W/m2
07:44 61.1 °F 58.1 °F 29.81 in South 4.0 mph 6.0 mph 90% 0.00 in 171.00 W/m2
07:49 61.3 °F 58.4 °F 29.81 in South 2.0 mph 8.0 mph 90% 0.00 in 214.00 W/m2
07:54 61.4 °F 58.1 °F 29.81 in South 2.0 mph 8.0 mph 89% 0.00 in 162.00 W/m2
07:59 61.7 °F 58.4 °F 29.81 in Calm   8.0 mph 89% 0.00 in 153.00 W/m2
08:04 61.9 °F 58.6 °F 29.81 in Calm   3.0 mph 89% 0.00 in 178.00 W/m2
08:09 62.0 °F 58.4 °F 29.80 in South 4.0 mph 7.0 mph 88% 0.00 in 174.00 W/m2
08:14 62.2 °F 58.6 °F 29.80 in South 3.0 mph 7.0 mph 88% 0.00 in 158.00 W/m2
08:19 62.4 °F 58.5 °F 29.80 in SSW 2.0 mph 8.0 mph 87% 0.00 in 127.00 W/m2
08:24 62.5 °F 58.6 °F 29.79 in SSW 4.0 mph 8.0 mph 87% 0.00 in 81.00 W/m2
08:29 62.6 °F 58.7 °F 29.79 in South 4.0 mph 10.0 mph 87% 0.00 in 139.00 W/m2
08:34 62.9 °F 59.0 °F 29.78 in South 2.0 mph 5.0 mph 87% 0.00 in 116.00 W/m2
08:39 63.1 °F 58.9 °F 29.78 in South 5.0 mph 9.0 mph 86% 0.00 in 186.00 W/m2
08:44 63.4 °F 59.1 °F 29.78 in South 3.0 mph 9.0 mph 86% 0.00 in 149.00 W/m2
08:49 63.5 °F 59.2 °F 29.78 in Calm   9.0 mph 86% 0.00 in 127.00 W/m2
08:54 63.6 °F 59.7 °F 29.78 in Calm   9.0 mph 87% 0.00 in 142.00 W/m2
08:59 63.6 °F 59.7 °F 29.78 in Calm   9.0 mph 87% 0.00 in 211.00 W/m2
09:04 63.8 °F 59.9 °F 29.78 in SSW 3.0 mph 4.0 mph 87% 0.00 in 232.00 W/m2
09:09 64.2 °F 60.3 °F 29.78 in Calm   6.0 mph 87% 0.00 in 223.00 W/m2
09:14 64.6 °F 60.6 °F 29.79 in SW 7.0 mph 10.0 mph 87% 0.00 in 311.00 W/m2
09:19 65.0 °F 60.7 °F 29.79 in SW 6.0 mph 13.0 mph 86% 0.00 in 155.00 W/m2
09:24 65.0 °F 60.4 °F 29.79 in SW 5.0 mph 13.0 mph 85% 0.00 in 137.00 W/m2
09:29 64.9 °F 60.3 °F 29.79 in SW 3.0 mph 13.0 mph 85% 0.00 in 113.00 W/m2
09:34 64.9 °F 60.3 °F 29.79 in SSW 4.0 mph 7.0 mph 85% 0.00 in 107.00 W/m2
09:39 64.8 °F 60.2 °F 29.79 in SSW 7.0 mph 7.0 mph 85% 0.00 in 135.00 W/m2
09:44 64.9 °F 60.3 °F 29.79 in SSW 5.0 mph 10.0 mph 85% 0.00 in 107.00 W/m2
09:49 64.9 °F 60.3 °F 29.79 in SW 8.0 mph 11.0 mph 85% 0.00 in 100.00 W/m2
09:54 65.0 °F 60.4 °F 29.80 in SW 5.0 mph 12.0 mph 85% 0.00 in 125.00 W/m2
09:59 65.0 °F 60.0 °F 29.80 in SSW 3.0 mph 12.0 mph 84% 0.00 in 169.00 W/m2
10:04 65.2 °F 60.6 °F 29.80 in SW 2.0 mph 5.0 mph 85% 0.00 in 130.00 W/m2
10:09 65.3 °F 60.4 °F 29.80 in SW 3.0 mph 7.0 mph 84% 0.00 in 111.00 W/m2
10:14 65.4 °F 60.5 °F 29.80 in Calm   7.0 mph 84% 0.00 in 100.00 W/m2
10:19 65.5 °F 60.5 °F 29.80 in SSW 2.0 mph 9.0 mph 84% 0.00 in 158.00 W/m2
10:24 65.6 °F 60.3 °F 29.80 in SSW 2.0 mph 9.0 mph 83% 0.00 in 121.00 W/m2
10:29 65.7 °F 60.4 °F 29.80 in South 3.0 mph 9.0 mph 83% 0.00 in 95.00 W/m2
10:34 65.8 °F 60.5 °F 29.80 in SW 14.0 mph 14.0 mph 83% 0.00 in 111.00 W/m2
10:39 65.8 °F 60.5 °F 29.80 in SSW 4.0 mph 14.0 mph 83% 0.00 in 146.00 W/m2
10:44 65.9 °F 60.6 °F 29.80 in South 3.0 mph 14.0 mph 83% 0.00 in 123.00 W/m2
10:49 66.0 °F 60.7 °F 29.80 in SSW 4.0 mph 14.0 mph 83% 0.00 in 178.00 W/m2
10:54 66.2 °F 60.9 °F 29.80 in Calm   14.0 mph 83% 0.00 in 218.00 W/m2
10:59 66.5 °F 60.8 °F 29.79 in SSW 3.0 mph 14.0 mph 82% 0.00 in 195.00 W/m2
11:04 66.9 °F 61.2 °F 29.79 in SW 5.0 mph 11.0 mph 82% 0.00 in 176.00 W/m2
11:09 67.2 °F 61.5 °F 29.79 in SW 4.0 mph 11.0 mph 82% 0.00 in 443.00 W/m2
11:14 67.9 °F 61.9 °F 29.79 in SSW 6.0 mph 11.0 mph 81% 0.00 in 464.00 W/m2
11:19 68.7 °F 62.3 °F 29.80 in SW 7.0 mph 12.0 mph 80% 0.00 in 418.00 W/m2
11:24 69.3 °F 62.1 °F 29.79 in SSW 3.0 mph 14.0 mph 78% 0.00 in 615.00 W/m2
11:29 69.9 °F 62.7 °F 29.79 in SSW 1.0 mph 14.0 mph 78% 0.00 in 489.00 W/m2
11:34 70.2 °F 62.7 °F 29.79 in South 6.0 mph 11.0 mph 77% 0.00 in 260.00 W/m2
11:39 70.5 °F 62.6 °F 29.79 in SW 6.0 mph 13.0 mph 76% 0.00 in 230.00 W/m2
11:44 70.6 °F 62.3 °F 29.78 in South 4.0 mph 13.0 mph 75% 0.00 in 262.00 W/m2
11:49 71.1 °F 62.8 °F 29.77 in SSW 5.0 mph 13.0 mph 75% 0.00 in 218.00 W/m2
11:54 71.6 °F 62.9 °F 29.77 in SW 3.0 mph 13.0 mph 74% 0.00 in 264.00 W/m2
11:59 72.0 °F 62.9 °F 29.77 in South 5.0 mph 13.0 mph 73% 0.00 in 912.00 W/m2
12:04 72.4 °F 63.3 °F 29.77 in South 5.0 mph 6.0 mph 73% 0.00 in 932.00 W/m2
12:09 72.7 °F 62.8 °F 29.77 in SW 4.0 mph 15.0 mph 71% 0.00 in 396.00 W/m2
12:14 72.9 °F 63.4 °F 29.77 in Calm   15.0 mph 72% 0.00 in 503.00 W/m2
12:19 73.3 °F 63.3 °F 29.77 in SSW 5.0 mph 15.0 mph 71% 0.00 in 332.00 W/m2
12:24 73.7 °F 63.3 °F 29.76 in WSW 5.0 mph 15.0 mph 70% 0.00 in 383.00 W/m2
12:29 73.9 °F 63.1 °F 29.76 in South 4.0 mph 15.0 mph 69% 0.00 in 345.00 W/m2
12:34 73.7 °F 62.9 °F 29.76 in South 3.0 mph 8.0 mph 69% 0.00 in 264.00 W/m2
12:39 73.5 °F 63.1 °F 29.76 in South 5.0 mph 11.0 mph 70% 0.00 in 264.00 W/m2
12:44 73.4 °F 63.4 °F 29.76 in South 4.0 mph 11.0 mph 71% 0.00 in 983.00 W/m2
12:49 73.4 °F 63.4 °F 29.76 in SSW 4.0 mph 13.0 mph 71% 0.00 in 904.00 W/m2
12:54 73.4 °F 63.4 °F 29.75 in SW 4.0 mph 13.0 mph 71% 0.00 in 872.00 W/m2
12:59 73.7 °F 63.3 °F 29.75 in SSW 6.0 mph 13.0 mph 70% 0.00 in 867.00 W/m2
13:04 73.9 °F 63.5 °F 29.75 in South 3.0 mph 11.0 mph 70% 0.00 in 316.00 W/m2
13:09 73.9 °F 63.9 °F 29.75 in SW 2.0 mph 11.0 mph 71% 0.00 in 710.00 W/m2
13:14 73.9 °F 63.1 °F 29.75 in South 1.0 mph 11.0 mph 69% 0.00 in 742.00 W/m2
13:19 74.0 °F 63.2 °F 29.75 in South 5.0 mph 11.0 mph 69% 0.00 in 810.00 W/m2
13:24 74.2 °F 63.4 °F 29.75 in South 6.0 mph 12.0 mph 69% 0.00 in 738.00 W/m2
13:29 74.2 °F 63.4 °F 29.75 in South 5.0 mph 12.0 mph 69% 0.00 in 703.00 W/m2
13:34 74.4 °F 63.2 °F 29.75 in South 5.0 mph 9.0 mph 68% 0.00 in 664.00 W/m2
13:39 74.6 °F 63.4 °F 29.75 in SSW 9.0 mph 11.0 mph 68% 0.00 in 603.00 W/m2
13:44 74.6 °F 63.4 °F 29.74 in SSE 2.0 mph 11.0 mph 68% 0.00 in 334.00 W/m2
13:49 74.5 °F 63.3 °F 29.75 in South 5.0 mph 11.0 mph 68% 0.00 in 782.00 W/m2
13:54 74.5 °F 63.7 °F 29.75 in South 5.0 mph 11.0 mph 69% 0.00 in 297.00 W/m2
13:59 74.4 °F 63.6 °F 29.75 in South 4.0 mph 11.0 mph 69% 0.00 in 253.00 W/m2
14:04 74.4 °F 63.2 °F 29.75 in South 6.0 mph 7.0 mph 68% 0.00 in 387.00 W/m2
14:09 74.4 °F 63.2 °F 29.74 in South 5.0 mph 13.0 mph 68% 0.00 in 350.00 W/m2
14:14 74.4 °F 63.2 °F 29.74 in South 6.0 mph 13.0 mph 68% 0.00 in 234.00 W/m2
14:19 74.1 °F 62.9 °F 29.74 in SSW 3.0 mph 13.0 mph 68% 0.00 in 308.00 W/m2
14:24 73.7 °F 62.5 °F 29.74 in SSW 4.0 mph 13.0 mph 68% 0.00 in 285.00 W/m2
14:29 73.5 °F 62.7 °F 29.75 in SSW 4.0 mph 14.0 mph 69% 0.00 in 202.00 W/m2
14:34 73.4 °F 63.0 °F 29.74 in Calm   12.0 mph 70% 0.00 in 190.00 W/m2
14:39 73.3 °F 62.9 °F 29.74 in South 6.0 mph 12.0 mph 70% 0.00 in 179.00 W/m2
14:44 73.3 °F 63.3 °F 29.75 in South 4.0 mph 12.0 mph 71% 0.00 in 162.00 W/m2
14:49 73.4 °F 63.0 °F 29.75 in South 9.0 mph 12.0 mph 70% 0.00 in 127.00 W/m2
14:54 73.3 °F 63.3 °F 29.74 in SSW 3.0 mph 12.0 mph 71% 0.00 in 192.00 W/m2
14:59 73.5 °F 63.5 °F 29.73 in SSW 6.0 mph 13.0 mph 71% 0.00 in 304.00 W/m2
15:04 74.1 °F 64.1 °F 29.74 in Calm   11.0 mph 71% 0.00 in 304.00 W/m2
15:09 74.8 °F 64.4 °F 29.74 in SSW 11.0 mph 11.0 mph 70% 0.00 in 489.00 W/m2
15:14 75.1 °F 64.2 °F 29.73 in SSW 4.0 mph 14.0 mph 69% 0.00 in 881.00 W/m2
15:19 75.4 °F 64.5 °F 29.73 in SSW 5.0 mph 14.0 mph 69% 0.00 in 881.00 W/m2
15:24 75.9 °F 65.0 °F 29.73 in South 4.0 mph 14.0 mph 69% 0.00 in 475.00 W/m2
15:29 75.8 °F 63.6 °F 29.73 in SSW 5.0 mph 14.0 mph 66% 0.00 in 274.00 W/m2
15:34 75.6 °F 64.3 °F 29.73 in SW 7.0 mph 10.0 mph 68% 0.00 in 306.00 W/m2
15:39 75.6 °F 64.3 °F 29.74 in South 7.0 mph 12.0 mph 68% 0.00 in 306.00 W/m2
15:44 75.2 °F 63.9 °F 29.73 in South 6.0 mph 12.0 mph 68% 0.00 in 158.00 W/m2
15:49 74.8 °F 64.0 °F 29.73 in South 7.0 mph 13.0 mph 69% 0.00 in 223.00 W/m2
15:54 74.6 °F 64.2 °F 29.73 in SSW 4.0 mph 13.0 mph 70% 0.00 in 392.00 W/m2
15:59 74.9 °F 64.0 °F 29.73 in South 4.0 mph 13.0 mph 69% 0.00 in 339.00 W/m2
16:00 74.9 °F 64.0 °F 29.73 in South 10.0 mph 13.0 mph 69% 0.00 in 339.00 W/m2
16:04 75.1 °F 63.8 °F 29.72 in South 5.0 mph 10.0 mph 68% 0.00 in 271.00 W/m2
16:09 75.1 °F 63.8 °F 29.72 in South 6.0 mph 13.0 mph 68% 0.00 in 188.00 W/m2
16:14 74.9 °F 64.0 °F 29.72 in SW 5.0 mph 13.0 mph 69% 0.00 in 199.00 W/m2
16:19 74.9 °F 64.5 °F 29.72 in Calm   13.0 mph 70% 0.00 in 176.00 W/m2
16:24 75.1 °F 63.8 °F 29.72 in South 3.0 mph 14.0 mph 68% 0.00 in 179.00 W/m2
16:29 74.8 °F 64.0 °F 29.72 in South 4.0 mph 14.0 mph 69% 0.00 in 200.00 W/m2
16:30 74.7 °F 63.9 °F 29.72 in SSE 4.0 mph 14.0 mph 69% 0.00 in 178.00 W/m2
16:34 74.4 °F 64.0 °F 29.72 in SSW 1.0 mph 10.0 mph 70% 0.00 in 158.00 W/m2
16:39 74.2 °F 63.8 °F 29.73 in South 3.0 mph 10.0 mph 70% 0.00 in 132.00 W/m2
16:44 73.9 °F 63.5 °F 29.73 in South 6.0 mph 10.0 mph 70% 0.00 in 128.00 W/m2
16:49 73.4 °F 63.8 °F 29.73 in South 3.0 mph 11.0 mph 72% 0.00 in 139.00 W/m2
16:54 73.2 °F 64.0 °F 29.73 in SSW 6.0 mph 11.0 mph 73% 0.00 in 144.00 W/m2
16:59 73.0 °F 63.8 °F 29.73 in South 5.0 mph 13.0 mph 73% 0.00 in 125.00 W/m2
17:00 73.0 °F 63.8 °F 29.73 in South 6.0 mph 13.0 mph 73% 0.00 in 121.00 W/m2
17:04 72.8 °F 63.6 °F 29.73 in SW 4.0 mph 11.0 mph 73% 0.00 in 105.00 W/m2
17:09 72.6 °F 63.9 °F 29.73 in South 5.0 mph 16.0 mph 74% 0.00 in 137.00 W/m2
17:14 72.4 °F 63.6 °F 29.73 in South 4.0 mph 16.0 mph 74% 0.00 in 123.00 W/m2
17:19 72.2 °F 63.5 °F 29.73 in SSW 4.0 mph 16.0 mph 74% 0.00 in 114.00 W/m2
17:24 72.2 °F 63.8 °F 29.73 in SSW 6.0 mph 16.0 mph 75% 0.00 in 130.00 W/m2
17:29 72.2 °F 63.8 °F 29.73 in SSW 1.0 mph 16.0 mph 75% 0.00 in 132.00 W/m2
17:34 72.2 °F 63.8 °F 29.73 in SSW 7.0 mph 13.0 mph 75% 0.00 in 141.00 W/m2
17:39 72.3 °F 63.9 °F 29.73 in SSW 12.0 mph 20.0 mph 75% 0.00 in 109.00 W/m2
17:44 72.4 °F 64.0 °F 29.73 in South 6.0 mph 20.0 mph 75% 0.00 in 97.00 W/m2
17:49 72.3 °F 63.6 °F 29.73 in SSW 4.0 mph 20.0 mph 74% 0.00 in 79.00 W/m2
17:54 72.2 °F 63.8 °F 29.73 in South 1.0 mph 20.0 mph 75% 0.00 in 65.00 W/m2
17:59 72.0 °F 63.6 °F 29.73 in South 2.0 mph 20.0 mph 75% 0.00 in 54.00 W/m2
18:04 71.8 °F 63.8 °F 29.73 in South 10.0 mph 10.0 mph 76% 0.00 in 62.00 W/m2
18:09 71.6 °F 63.6 °F 29.74 in SW 6.0 mph 10.0 mph 76% 0.00 in 83.00 W/m2
18:14 71.6 °F 64.0 °F 29.73 in SSW 4.0 mph 10.0 mph 77% 0.00 in 67.00 W/m2
18:19 71.5 °F 63.9 °F 29.73 in South 4.0 mph 17.0 mph 77% 0.00 in 47.00 W/m2
18:24 71.4 °F 63.8 °F 29.73 in South 4.0 mph 17.0 mph 77% 0.00 in 35.00 W/m2
18:29 71.3 °F 63.7 °F 29.73 in SSW 6.0 mph 17.0 mph 77% 0.00 in 56.00 W/m2
18:34 71.1 °F 63.9 °F 29.74 in SSW 3.0 mph 11.0 mph 78% 0.00 in 25.00 W/m2
18:39 71.0 °F 64.2 °F 29.74 in SW 14.0 mph 14.0 mph 79% 0.00 in 23.00 W/m2
18:44 70.8 °F 64.0 °F 29.74 in SSW 5.0 mph 15.0 mph 79% 0.00 in 12.00 W/m2
18:49 70.7 °F 63.9 °F 29.74 in SW 7.0 mph 15.0 mph 79% 0.00 in 11.00 W/m2
18:54 70.5 °F 63.7 °F 29.74 in South 10.0 mph 15.0 mph 79% 0.00 in 11.00 W/m2
18:59 70.2 °F 63.4 °F 29.75 in South 6.0 mph 15.0 mph 79% 0.00 in 11.00 W/m2
19:04 70.0 °F 63.5 °F 29.75 in South 6.0 mph 13.0 mph 80% 0.00 in 7.00 W/m2
19:09 69.9 °F 63.8 °F 29.75 in South 4.0 mph 13.0 mph 81% 0.00 in 12.00 W/m2
19:14 69.9 °F 64.2 °F 29.75 in South 6.0 mph 16.0 mph 82% 0.00 in 7.00 W/m2
19:19 69.6 °F 63.5 °F 29.75 in South 7.0 mph 16.0 mph 81% 0.00 in 5.00 W/m2
19:24 69.4 °F 63.7 °F 29.76 in South 5.0 mph 16.0 mph 82% 0.00 in 0.00 W/m2
19:29 69.1 °F 63.4 °F 29.76 in SSW 5.0 mph 16.0 mph 82% 0.00 in 0.00 W/m2
19:32 68.9 °F 63.5 °F 29.76 in South 4.0 mph 6.0 mph 83% 0.00 in 0.00 W/m2
19:59 67.2 °F 63.2 °F 29.76 in South 6.0 mph 10.0 mph 87% 0.00 in 0.00 W/m2
20:04 67.0 °F 63.0 °F 29.76 in SSW 5.0 mph 7.0 mph 87% 0.00 in 0.00 W/m2
20:09 66.8 °F 62.8 °F 29.76 in South 2.0 mph 8.0 mph 87% 0.00 in 0.00 W/m2
20:14 66.7 °F 63.0 °F 29.76 in South 3.0 mph 8.0 mph 88% 0.00 in 0.00 W/m2
20:19 66.5 °F 62.8 °F 29.76 in South 6.0 mph 13.0 mph 88% 0.00 in 0.00 W/m2
20:24 66.4 °F 62.7 °F 29.77 in South 3.0 mph 13.0 mph 88% 0.00 in 0.00 W/m2
20:29 66.3 °F 62.6 °F 29.77 in South 7.0 mph 16.0 mph 88% 0.00 in 0.00 W/m2
20:34 66.2 °F 62.5 °F 29.77 in South 3.0 mph 10.0 mph 88% 0.00 in 0.00 W/m2
20:39 66.1 °F 62.8 °F 29.77 in South 4.0 mph 10.0 mph 89% 0.00 in 0.00 W/m2
20:44 66.1 °F 62.8 °F 29.77 in SW 2.0 mph 10.0 mph 89% 0.00 in 0.00 W/m2
20:49 66.0 °F 62.7 °F 29.77 in Calm   10.0 mph 89% 0.00 in 0.00 W/m2
20:54 65.9 °F 62.6 °F 29.77 in South 3.0 mph 10.0 mph 89% 0.00 in 0.00 W/m2
20:59 65.8 °F 62.5 °F 29.77 in South 3.0 mph 10.0 mph 89% 0.00 in 0.00 W/m2
21:04 65.6 °F 62.3 °F 29.77 in Calm   5.0 mph 89% 0.00 in 0.00 W/m2
21:09 65.4 °F 62.4 °F 29.77 in South 4.0 mph 5.0 mph 90% 0.00 in 0.00 W/m2
21:14 65.3 °F 62.3 °F 29.77 in SSW 2.0 mph 5.0 mph 90% 0.00 in 0.00 W/m2
21:19 65.2 °F 62.2 °F 29.77 in Calm   7.0 mph 90% 0.00 in 0.00 W/m2
21:24 65.0 °F 62.3 °F 29.77 in Calm   7.0 mph 91% 0.00 in 0.00 W/m2
21:29 64.9 °F 62.5 °F 29.77 in South 4.0 mph 7.0 mph 92% 0.00 in 0.00 W/m2
21:34 64.8 °F 62.4 °F 29.77 in South 4.0 mph 4.0 mph 92% 0.00 in 0.00 W/m2
21:39 64.7 °F 62.3 °F 29.77 in South 1.0 mph 7.0 mph 92% 0.00 in 0.00 W/m2
21:44 64.7 °F 62.6 °F 29.77 in Calm   7.0 mph 93% 0.01 in 0.00 W/m2
21:49 64.6 °F 62.5 °F 29.77 in South 2.0 mph 7.0 mph 93% 0.01 in 0.00 W/m2
21:54 64.5 °F 62.4 °F 29.77 in South 2.0 mph 7.0 mph 93% 0.01 in 0.00 W/m2
21:59 64.5 °F 62.4 °F 29.76 in SSW 3.0 mph 7.0 mph 93% 0.01 in 0.00 W/m2
22:04 64.5 °F 62.4 °F 29.76 in South 2.0 mph 3.0 mph 93% 0.01 in 0.00 W/m2
22:09 64.5 °F 62.4 °F 29.76 in South 4.0 mph 13.0 mph 93% 0.01 in 0.00 W/m2
22:14 64.5 °F 62.7 °F 29.75 in Calm   13.0 mph 94% 0.01 in 0.00 W/m2
22:19 64.5 °F 62.7 °F 29.75 in SSW 2.0 mph 13.0 mph 94% 0.01 in 0.00 W/m2
22:24 64.4 °F 62.6 °F 29.75 in Calm   13.0 mph 94% 0.01 in 0.00 W/m2
22:29 64.5 °F 62.7 °F 29.74 in South 2.0 mph 13.0 mph 94% 0.01 in 0.00 W/m2
Grace C. Lehan Memorial Weather Station
Compliments of Weather Underground - 2 mb